sensor_id;sensor_type;location;lat;lon;timestamp;pressure;altitude;pressure_sealevel;temperature;humidity
12775;BME280;6451;42.630;23.382;2024-03-17T00:00:31;94638.22;;;9.22;100.00
12775;BME280;6451;42.630;23.382;2024-03-17T00:02:58;94638.31;;;9.25;100.00
12775;BME280;6451;42.630;23.382;2024-03-17T00:05:25;94637.06;;;9.23;100.00
12775;BME280;6451;42.630;23.382;2024-03-17T00:07:53;94578.88;;;8.87;100.00
12775;BME280;6451;42.630;23.382;2024-03-17T00:10:19;94647.50;;;9.33;100.00
12775;BME280;6451;42.630;23.382;2024-03-17T00:12:47;94637.53;;;9.25;100.00
12775;BME280;6451;42.630;23.382;2024-03-17T00:15:15;94632.31;;;9.19;100.00
12775;BME280;6451;42.630;23.382;2024-03-17T00:17:42;94632.38;;;9.11;100.00
12775;BME280;6451;42.630;23.382;2024-03-17T00:20:10;94548.09;;;8.50;100.00
12775;BME280;6451;42.630;23.382;2024-03-17T00:22:44;94636.34;;;9.13;100.00
12775;BME280;6451;42.630;23.382;2024-03-17T00:25:13;94637.00;;;9.10;100.00
12775;BME280;6451;42.630;23.382;2024-03-17T00:27:41;94632.44;;;9.02;100.00
12775;BME280;6451;42.630;23.382;2024-03-17T00:30:10;94617.84;;;8.95;100.00
12775;BME280;6451;42.630;23.382;2024-03-17T00:32:40;94609.59;;;8.91;100.00
12775;BME280;6451;42.630;23.382;2024-03-17T00:35:07;94594.78;;;8.68;100.00
12775;BME280;6451;42.630;23.382;2024-03-17T00:37:35;94618.56;;;8.83;100.00
12775;BME280;6451;42.630;23.382;2024-03-17T00:40:02;94617.84;;;8.65;100.00
12775;BME280;6451;42.630;23.382;2024-03-17T00:42:32;94614.63;;;8.72;100.00
12775;BME280;6451;42.630;23.382;2024-03-17T00:44:58;94614.06;;;8.87;100.00
12775;BME280;6451;42.630;23.382;2024-03-17T00:47:26;94618.69;;;8.86;100.00
12775;BME280;6451;42.630;23.382;2024-03-17T00:49:52;94601.13;;;8.72;100.00
12775;BME280;6451;42.630;23.382;2024-03-17T00:52:19;94609.09;;;8.68;100.00
12775;BME280;6451;42.630;23.382;2024-03-17T00:54:47;94598.34;;;8.59;100.00
12775;BME280;6451;42.630;23.382;2024-03-17T00:57:16;94626.19;;;8.81;100.00
12775;BME280;6451;42.630;23.382;2024-03-17T00:59:43;94621.41;;;8.86;100.00
12775;BME280;6451;42.630;23.382;2024-03-17T01:02:12;94620.50;;;8.74;100.00
12775;BME280;6451;42.630;23.382;2024-03-17T01:04:41;94621.13;;;8.79;100.00
12775;BME280;6451;42.630;23.382;2024-03-17T01:07:08;94622.97;;;8.67;100.00
12775;BME280;6451;42.630;23.382;2024-03-17T01:09:36;94541.44;;;8.09;100.00
12775;BME280;6451;42.630;23.382;2024-03-17T01:12:03;94613.94;;;8.54;100.00
12775;BME280;6451;42.630;23.382;2024-03-17T01:14:31;94625.28;;;8.47;100.00
12775;BME280;6451;42.630;23.382;2024-03-17T01:17:01;94620.81;;;8.43;100.00
12775;BME280;6451;42.630;23.382;2024-03-17T01:19:32;94623.53;;;8.43;100.00
12775;BME280;6451;42.630;23.382;2024-03-17T01:22:00;94624.09;;;8.57;100.00
12775;BME280;6451;42.630;23.382;2024-03-17T01:24:28;94548.31;;;8.06;100.00
12775;BME280;6451;42.630;23.382;2024-03-17T01:26:57;94490.78;;;7.68;100.00
12775;BME280;6451;42.630;23.382;2024-03-17T01:29:24;94612.09;;;8.46;100.00
12775;BME280;6451;42.630;23.382;2024-03-17T01:31:52;94616.66;;;8.54;100.00
12775;BME280;6451;42.630;23.382;2024-03-17T01:34:21;94624.47;;;8.47;100.00
12775;BME280;6451;42.630;23.382;2024-03-17T01:36:49;94551.50;;;8.00;100.00
12775;BME280;6451;42.630;23.382;2024-03-17T01:39:18;94624.53;;;8.38;100.00
12775;BME280;6451;42.630;23.382;2024-03-17T01:41:47;94605.44;;;8.26;100.00
12775;BME280;6451;42.630;23.382;2024-03-17T01:44:22;94621.03;;;8.20;100.00
12775;BME280;6451;42.630;23.382;2024-03-17T01:46:50;94589.63;;;8.07;100.00
12775;BME280;6451;42.630;23.382;2024-03-17T01:49:16;94626.78;;;8.19;100.00
12775;BME280;6451;42.630;23.382;2024-03-17T01:51:46;94585.06;;;7.99;100.00
12775;BME280;6451;42.630;23.382;2024-03-17T01:54:14;94541.47;;;7.62;100.00
12775;BME280;6451;42.630;23.382;2024-03-17T01:56:41;94621.25;;;8.15;100.00
12775;BME280;6451;42.630;23.382;2024-03-17T01:59:09;94612.84;;;8.08;100.00
12775;BME280;6451;42.630;23.382;2024-03-17T02:01:39;94523.22;;;7.50;100.00
12775;BME280;6451;42.630;23.382;2024-03-17T02:04:06;94621.44;;;8.01;100.00
12775;BME280;6451;42.630;23.382;2024-03-17T02:06:34;94615.53;;;8.08;100.00
12775;BME280;6451;42.630;23.382;2024-03-17T02:09:01;94620.50;;;7.89;100.00
12775;BME280;6451;42.630;23.382;2024-03-17T02:11:31;94620.03;;;7.95;100.00
12775;BME280;6451;42.630;23.382;2024-03-17T02:13:58;94465.41;;;6.87;100.00
12775;BME280;6451;42.630;23.382;2024-03-17T02:16:27;94626.34;;;8.08;100.00
12775;BME280;6451;42.630;23.382;2024-03-17T02:18:55;94623.31;;;8.09;100.00
12775;BME280;6451;42.630;23.382;2024-03-17T02:21:23;94625.41;;;8.04;100.00
12775;BME280;6451;42.630;23.382;2024-03-17T02:23:53;94572.09;;;7.66;100.00
12775;BME280;6451;42.630;23.382;2024-03-17T02:26:21;94571.44;;;7.78;100.00
12775;BME280;6451;42.630;23.382;2024-03-17T02:28:47;94610.78;;;7.96;100.00
12775;BME280;6451;42.630;23.382;2024-03-17T02:31:16;94606.06;;;7.93;100.00
12775;BME280;6451;42.630;23.382;2024-03-17T02:33:44;94600.00;;;7.96;100.00
12775;BME280;6451;42.630;23.382;2024-03-17T02:36:12;94614.38;;;8.18;100.00
12775;BME280;6451;42.630;23.382;2024-03-17T02:38:38;94616.00;;;8.10;100.00
12775;BME280;6451;42.630;23.382;2024-03-17T02:41:27;94600.66;;;7.85;100.00
12775;BME280;6451;42.630;23.382;2024-03-17T02:44:00;94618.59;;;7.98;100.00
12775;BME280;6451;42.630;23.382;2024-03-17T02:46:27;94619.38;;;7.90;100.00
12775;BME280;6451;42.630;23.382;2024-03-17T02:48:54;94590.53;;;7.64;100.00
12775;BME280;6451;42.630;23.382;2024-03-17T02:51:22;94614.34;;;7.79;100.00
12775;BME280;6451;42.630;23.382;2024-03-17T02:53:50;94612.44;;;7.71;100.00
12775;BME280;6451;42.630;23.382;2024-03-17T02:56:18;94615.63;;;7.73;100.00
12775;BME280;6451;42.630;23.382;2024-03-17T02:58:47;94594.38;;;7.63;100.00
12775;BME280;6451;42.630;23.382;2024-03-17T03:01:17;94605.78;;;7.77;100.00
12775;BME280;6451;42.630;23.382;2024-03-17T03:03:46;94545.34;;;7.44;100.00
12775;BME280;6451;42.630;23.382;2024-03-17T03:06:13;94613.03;;;7.94;100.00
12775;BME280;6451;42.630;23.382;2024-03-17T03:08:41;94509.50;;;7.17;100.00
12775;BME280;6451;42.630;23.382;2024-03-17T03:11:09;94609.91;;;7.84;100.00
12775;BME280;6451;42.630;23.382;2024-03-17T03:13:38;94602.47;;;7.63;100.00
12775;BME280;6451;42.630;23.382;2024-03-17T03:16:07;94589.94;;;7.50;100.00
12775;BME280;6451;42.630;23.382;2024-03-17T03:18:35;94591.22;;;7.44;100.00
12775;BME280;6451;42.630;23.382;2024-03-17T03:21:01;94579.13;;;7.50;100.00
12775;BME280;6451;42.630;23.382;2024-03-17T03:23:31;94528.38;;;7.17;100.00
12775;BME280;6451;42.630;23.382;2024-03-17T03:26:01;94607.41;;;7.61;100.00
12775;BME280;6451;42.630;23.382;2024-03-17T03:28:32;94605.50;;;7.62;100.00
12775;BME280;6451;42.630;23.382;2024-03-17T03:31:01;94592.16;;;7.48;100.00
12775;BME280;6451;42.630;23.382;2024-03-17T03:33:30;94614.41;;;7.53;100.00
12775;BME280;6451;42.630;23.382;2024-03-17T03:35:57;94612.66;;;7.49;100.00
12775;BME280;6451;42.630;23.382;2024-03-17T03:38:25;94565.38;;;7.08;100.00
12775;BME280;6451;42.630;23.382;2024-03-17T03:40:53;94616.16;;;7.41;100.00
12775;BME280;6451;42.630;23.382;2024-03-17T03:43:20;94604.09;;;7.30;100.00
12775;BME280;6451;42.630;23.382;2024-03-17T03:45:47;94619.97;;;7.40;100.00
12775;BME280;6451;42.630;23.382;2024-03-17T03:48:17;94602.66;;;7.23;100.00
12775;BME280;6451;42.630;23.382;2024-03-17T03:50:46;94584.25;;;6.91;100.00
12775;BME280;6451;42.630;23.382;2024-03-17T03:53:13;94632.97;;;7.20;100.00
12775;BME280;6451;42.630;23.382;2024-03-17T03:55:43;94617.91;;;7.11;100.00
12775;BME280;6451;42.630;23.382;2024-03-17T03:58:11;94624.88;;;7.20;100.00
12775;BME280;6451;42.630;23.382;2024-03-17T04:00:38;94536.94;;;6.50;100.00
12775;BME280;6451;42.630;23.382;2024-03-17T04:03:06;94639.81;;;7.18;100.00
12775;BME280;6451;42.630;23.382;2024-03-17T04:05:34;94644.88;;;7.19;100.00
12775;BME280;6451;42.630;23.382;2024-03-17T04:08:09;94606.47;;;7.05;100.00
12775;BME280;6451;42.630;23.382;2024-03-17T04:10:36;94647.91;;;7.27;100.00
12775;BME280;6451;42.630;23.382;2024-03-17T04:13:03;94639.19;;;7.30;100.00
12775;BME280;6451;42.630;23.382;2024-03-17T04:15:31;94642.84;;;7.25;100.00
12775;BME280;6451;42.630;23.382;2024-03-17T04:18:00;94654.41;;;7.25;100.00
12775;BME280;6451;42.630;23.382;2024-03-17T04:20:29;94657.59;;;7.19;100.00
12775;BME280;6451;42.630;23.382;2024-03-17T04:22:56;94655.06;;;7.22;100.00
12775;BME280;6451;42.630;23.382;2024-03-17T04:25:27;94616.13;;;6.80;100.00
12775;BME280;6451;42.630;23.382;2024-03-17T04:27:56;94637.25;;;6.87;100.00
12775;BME280;6451;42.630;23.382;2024-03-17T04:30:23;94641.97;;;6.81;100.00
12775;BME280;6451;42.630;23.382;2024-03-17T04:32:51;94661.72;;;6.99;100.00
12775;BME280;6451;42.630;23.382;2024-03-17T04:35:19;94550.84;;;6.35;100.00
12775;BME280;6451;42.630;23.382;2024-03-17T04:37:45;94601.97;;;6.66;100.00
12775;BME280;6451;42.630;23.382;2024-03-17T04:40:13;94400.97;;;5.16;100.00
12775;BME280;6451;42.630;23.382;2024-03-17T04:42:42;94679.47;;;7.00;100.00
12775;BME280;6451;42.630;23.382;2024-03-17T04:45:09;94684.56;;;7.02;100.00
12775;BME280;6451;42.630;23.382;2024-03-17T04:47:37;94678.03;;;7.03;100.00
12775;BME280;6451;42.630;23.382;2024-03-17T04:50:05;94686.94;;;7.03;100.00
12775;BME280;6451;42.630;23.382;2024-03-17T04:52:32;94655.78;;;6.80;100.00
12775;BME280;6451;42.630;23.382;2024-03-17T04:55:01;94687.25;;;6.93;100.00
12775;BME280;6451;42.630;23.382;2024-03-17T04:57:29;94695.16;;;6.89;100.00
12775;BME280;6451;42.630;23.382;2024-03-17T04:59:59;94656.69;;;6.66;100.00
12775;BME280;6451;42.630;23.382;2024-03-17T05:02:26;94694.38;;;6.97;100.00
12775;BME280;6451;42.630;23.382;2024-03-17T05:04:53;94700.09;;;6.96;100.00
12775;BME280;6451;42.630;23.382;2024-03-17T05:07:20;94667.03;;;6.73;100.00
12775;BME280;6451;42.630;23.382;2024-03-17T05:09:49;94696.63;;;7.13;100.00
12775;BME280;6451;42.630;23.382;2024-03-17T05:12:18;94695.66;;;7.00;100.00
12775;BME280;6451;42.630;23.382;2024-03-17T05:14:47;94695.00;;;6.86;100.00
12775;BME280;6451;42.630;23.382;2024-03-17T05:17:17;94714.09;;;7.07;100.00
12775;BME280;6451;42.630;23.382;2024-03-17T05:19:46;94716.97;;;7.28;100.00
12775;BME280;6451;42.630;23.382;2024-03-17T05:22:14;94701.41;;;7.07;100.00
12775;BME280;6451;42.630;23.382;2024-03-17T05:24:42;94716.13;;;7.01;100.00
12775;BME280;6451;42.630;23.382;2024-03-17T05:27:13;94718.88;;;7.18;100.00
12775;BME280;6451;42.630;23.382;2024-03-17T05:29:43;94712.03;;;7.12;100.00
12775;BME280;6451;42.630;23.382;2024-03-17T05:32:10;94715.84;;;7.20;100.00
12775;BME280;6451;42.630;23.382;2024-03-17T05:34:41;94725.09;;;7.45;100.00
12775;BME280;6451;42.630;23.382;2024-03-17T05:37:08;94724.78;;;7.55;100.00
12775;BME280;6451;42.630;23.382;2024-03-17T05:39:35;94722.72;;;7.87;100.00
12775;BME280;6451;42.630;23.382;2024-03-17T05:42:03;94720.00;;;7.78;100.00
12775;BME280;6451;42.630;23.382;2024-03-17T05:44:34;94705.06;;;7.72;100.00
12775;BME280;6451;42.630;23.382;2024-03-17T05:47:16;94682.50;;;7.94;100.00
12775;BME280;6451;42.630;23.382;2024-03-17T05:49:47;94723.78;;;8.38;100.00
12775;BME280;6451;42.630;23.382;2024-03-17T05:52:14;94725.84;;;8.23;100.00
12775;BME280;6451;42.630;23.382;2024-03-17T05:54:41;94700.09;;;8.17;100.00
12775;BME280;6451;42.630;23.382;2024-03-17T05:57:09;94629.97;;;8.12;100.00
12775;BME280;6451;42.630;23.382;2024-03-17T05:59:39;94681.97;;;8.64;100.00
12775;BME280;6451;42.630;23.382;2024-03-17T06:02:06;94720.09;;;8.80;100.00
12775;BME280;6451;42.630;23.382;2024-03-17T06:04:38;94647.88;;;8.43;100.00
12775;BME280;6451;42.630;23.382;2024-03-17T06:07:12;94614.97;;;8.32;100.00
12775;BME280;6451;42.630;23.382;2024-03-17T06:09:38;94625.38;;;8.21;100.00
12775;BME280;6451;42.630;23.382;2024-03-17T06:12:05;94712.81;;;8.72;100.00
12775;BME280;6451;42.630;23.382;2024-03-17T06:14:32;94729.63;;;8.86;100.00
12775;BME280;6451;42.630;23.382;2024-03-17T06:17:01;94655.97;;;8.43;100.00
12775;BME280;6451;42.630;23.382;2024-03-17T06:19:27;94735.56;;;9.09;100.00
12775;BME280;6451;42.630;23.382;2024-03-17T06:21:54;94677.31;;;8.82;100.00
12775;BME280;6451;42.630;23.382;2024-03-17T06:24:23;94733.53;;;9.36;100.00
12775;BME280;6451;42.630;23.382;2024-03-17T06:26:50;94671.22;;;8.85;100.00
12775;BME280;6451;42.630;23.382;2024-03-17T06:29:17;94747.34;;;9.13;100.00
12775;BME280;6451;42.630;23.382;2024-03-17T06:31:48;94702.53;;;9.25;100.00
12775;BME280;6451;42.630;23.382;2024-03-17T06:34:15;94755.22;;;9.78;100.00
12775;BME280;6451;42.630;23.382;2024-03-17T06:36:43;94757.13;;;9.98;100.00
12775;BME280;6451;42.630;23.382;2024-03-17T06:39:12;94747.94;;;9.90;100.00
12775;BME280;6451;42.630;23.382;2024-03-17T06:41:45;94730.84;;;10.11;100.00
12775;BME280;6451;42.630;23.382;2024-03-17T06:44:12;94660.97;;;9.62;100.00
12775;BME280;6451;42.630;23.382;2024-03-17T06:46:39;94699.59;;;9.59;100.00
12775;BME280;6451;42.630;23.382;2024-03-17T06:49:07;94757.97;;;10.11;100.00
12775;BME280;6451;42.630;23.382;2024-03-17T06:51:34;94704.78;;;9.85;100.00
12775;BME280;6451;42.630;23.382;2024-03-17T06:54:02;94640.34;;;9.70;100.00
12775;BME280;6451;42.630;23.382;2024-03-17T06:56:29;94763.91;;;10.58;100.00
12775;BME280;6451;42.630;23.382;2024-03-17T06:59:00;94757.09;;;10.85;100.00
12775;BME280;6451;42.630;23.382;2024-03-17T07:01:28;94720.78;;;10.77;100.00
12775;BME280;6451;42.630;23.382;2024-03-17T07:03:55;94769.34;;;11.40;100.00
12775;BME280;6451;42.630;23.382;2024-03-17T07:06:22;94656.50;;;10.45;100.00
12775;BME280;6451;42.630;23.382;2024-03-17T07:08:49;94762.31;;;11.39;100.00
12775;BME280;6451;42.630;23.382;2024-03-17T07:11:17;94642.84;;;10.78;100.00
12775;BME280;6451;42.630;23.382;2024-03-17T07:13:44;94667.38;;;10.69;100.00
12775;BME280;6451;42.630;23.382;2024-03-17T07:16:13;94752.94;;;11.36;100.00
12775;BME280;6451;42.630;23.382;2024-03-17T07:18:40;94634.16;;;10.15;100.00
12775;BME280;6451;42.630;23.382;2024-03-17T07:21:09;94739.44;;;11.40;100.00
12775;BME280;6451;42.630;23.382;2024-03-17T07:23:36;94760.94;;;11.57;100.00
12775;BME280;6451;42.630;23.382;2024-03-17T07:26:04;94746.22;;;11.34;100.00
12775;BME280;6451;42.630;23.382;2024-03-17T07:28:33;94741.91;;;11.57;100.00
12775;BME280;6451;42.630;23.382;2024-03-17T07:31:00;94754.22;;;11.79;100.00
12775;BME280;6451;42.630;23.382;2024-03-17T07:33:28;94725.81;;;11.64;100.00
12775;BME280;6451;42.630;23.382;2024-03-17T07:35:56;94742.25;;;11.56;100.00
12775;BME280;6451;42.630;23.382;2024-03-17T07:38:32;94719.03;;;11.83;100.00
12775;BME280;6451;42.630;23.382;2024-03-17T07:41:02;94756.72;;;12.24;100.00
12775;BME280;6451;42.630;23.382;2024-03-17T07:43:31;94755.28;;;12.43;100.00
12775;BME280;6451;42.630;23.382;2024-03-17T07:46:03;94740.81;;;12.55;100.00
12775;BME280;6451;42.630;23.382;2024-03-17T07:48:34;94757.41;;;12.49;100.00
12775;BME280;6451;42.630;23.382;2024-03-17T07:51:03;94741.50;;;11.95;100.00
12775;BME280;6451;42.630;23.382;2024-03-17T07:53:30;94684.19;;;11.88;100.00
12775;BME280;6451;42.630;23.382;2024-03-17T07:55:59;94712.16;;;11.49;100.00
12775;BME280;6451;42.630;23.382;2024-03-17T07:58:28;94755.34;;;12.31;100.00
12775;BME280;6451;42.630;23.382;2024-03-17T08:00:58;94700.47;;;12.01;100.00
12775;BME280;6451;42.630;23.382;2024-03-17T08:03:27;94759.28;;;12.61;100.00
12775;BME280;6451;42.630;23.382;2024-03-17T08:05:55;94690.69;;;12.12;100.00
12775;BME280;6451;42.630;23.382;2024-03-17T08:08:23;94728.09;;;12.43;100.00
12775;BME280;6451;42.630;23.382;2024-03-17T08:10:51;94742.28;;;12.08;100.00
12775;BME280;6451;42.630;23.382;2024-03-17T08:13:23;94694.31;;;12.16;100.00
12775;BME280;6451;42.630;23.382;2024-03-17T08:15:56;94737.44;;;12.30;100.00
12775;BME280;6451;42.630;23.382;2024-03-17T08:18:23;94727.56;;;12.25;100.00
12775;BME280;6451;42.630;23.382;2024-03-17T08:20:53;94717.84;;;12.24;100.00
12775;BME280;6451;42.630;23.382;2024-03-17T08:23:21;94765.19;;;12.07;100.00
12775;BME280;6451;42.630;23.382;2024-03-17T08:25:52;94752.38;;;12.08;100.00
12775;BME280;6451;42.630;23.382;2024-03-17T08:28:19;94698.16;;;11.75;100.00
12775;BME280;6451;42.630;23.382;2024-03-17T08:30:51;94610.41;;;11.34;100.00
12775;BME280;6451;42.630;23.382;2024-03-17T08:33:19;94750.84;;;12.22;100.00
12775;BME280;6451;42.630;23.382;2024-03-17T08:35:58;94527.06;;;11.10;100.00
12775;BME280;6451;42.630;23.382;2024-03-17T08:38:28;94746.03;;;12.60;100.00
12775;BME280;6451;42.630;23.382;2024-03-17T08:40:56;94745.41;;;12.22;100.00
12775;BME280;6451;42.630;23.382;2024-03-17T08:43:23;94726.72;;;12.21;100.00
12775;BME280;6451;42.630;23.382;2024-03-17T08:45:56;94710.69;;;12.47;100.00
12775;BME280;6451;42.630;23.382;2024-03-17T08:48:27;94739.94;;;12.50;100.00
12775;BME280;6451;42.630;23.382;2024-03-17T08:50:56;94737.50;;;12.61;100.00
12775;BME280;6451;42.630;23.382;2024-03-17T08:53:28;94736.53;;;12.53;100.00
12775;BME280;6451;42.630;23.382;2024-03-17T08:55:58;94678.75;;;11.88;100.00
12775;BME280;6451;42.630;23.382;2024-03-17T08:58:26;94714.28;;;12.36;100.00
12775;BME280;6451;42.630;23.382;2024-03-17T09:00:53;94595.31;;;11.77;100.00
12775;BME280;6451;42.630;23.382;2024-03-17T09:03:21;94615.75;;;12.14;100.00
12775;BME280;6451;42.630;23.382;2024-03-17T09:05:49;94683.66;;;12.55;100.00
12775;BME280;6451;42.630;23.382;2024-03-17T09:08:22;94724.84;;;12.53;100.00
12775;BME280;6451;42.630;23.382;2024-03-17T09:10:52;94666.09;;;12.08;100.00
12775;BME280;6451;42.630;23.382;2024-03-17T09:13:22;94718.84;;;12.47;100.00
12775;BME280;6451;42.630;23.382;2024-03-17T09:15:52;94710.91;;;13.02;100.00
12775;BME280;6451;42.630;23.382;2024-03-17T09:18:19;94712.03;;;13.01;100.00
12775;BME280;6451;42.630;23.382;2024-03-17T09:20:46;94666.78;;;13.28;97.00
12775;BME280;6451;42.630;23.382;2024-03-17T09:23:22;94658.47;;;12.89;96.67
12775;BME280;6451;42.630;23.382;2024-03-17T09:25:56;94664.13;;;13.16;97.18
12775;BME280;6451;42.630;23.382;2024-03-17T09:28:23;94645.00;;;13.28;93.85
12775;BME280;6451;42.630;23.382;2024-03-17T09:30:53;94597.19;;;12.99;93.03
12775;BME280;6451;42.630;23.382;2024-03-17T09:33:22;94613.59;;;13.53;91.50
12775;BME280;6451;42.630;23.382;2024-03-17T09:35:56;94577.00;;;13.35;84.35
12775;BME280;6451;42.630;23.382;2024-03-17T09:38:25;94686.47;;;13.91;82.12
12775;BME280;6451;42.630;23.382;2024-03-17T09:40:53;94692.41;;;13.78;80.31
12775;BME280;6451;42.630;23.382;2024-03-17T09:43:24;94593.72;;;13.53;75.07
12775;BME280;6451;42.630;23.382;2024-03-17T09:45:51;94569.00;;;13.26;75.59
12775;BME280;6451;42.630;23.382;2024-03-17T09:48:23;94520.47;;;13.32;74.11
12775;BME280;6451;42.630;23.382;2024-03-17T09:50:52;94580.94;;;13.96;73.56
12775;BME280;6451;42.630;23.382;2024-03-17T09:53:23;94681.41;;;14.52;66.62
12775;BME280;6451;42.630;23.382;2024-03-17T09:55:57;94528.78;;;14.01;62.23
12775;BME280;6451;42.630;23.382;2024-03-17T09:58:26;94564.59;;;14.18;62.84
12775;BME280;6451;42.630;23.382;2024-03-17T10:00:53;94679.44;;;15.47;59.55
12775;BME280;6451;42.630;23.382;2024-03-17T10:03:39;94611.94;;;14.98;57.67
12775;BME280;6451;42.630;23.382;2024-03-17T10:06:07;94676.94;;;15.35;57.74
12775;BME280;6451;42.630;23.382;2024-03-17T10:08:40;94675.50;;;15.45;55.33
12775;BME280;6451;42.630;23.382;2024-03-17T10:11:07;94559.06;;;14.61;56.49
12775;BME280;6451;42.630;23.382;2024-03-17T10:13:36;94655.53;;;15.14;53.65
12775;BME280;6451;42.630;23.382;2024-03-17T10:16:03;94654.34;;;15.65;52.69
12775;BME280;6451;42.630;23.382;2024-03-17T10:18:30;94692.19;;;15.89;50.64
12775;BME280;6451;42.630;23.382;2024-03-17T10:20:57;94613.47;;;14.96;51.72
12775;BME280;6451;42.630;23.382;2024-03-17T10:23:27;94679.00;;;15.42;52.51
12775;BME280;6451;42.630;23.382;2024-03-17T10:25:56;94652.63;;;15.30;50.31
12775;BME280;6451;42.630;23.382;2024-03-17T10:28:23;94681.44;;;15.77;49.14
12775;BME280;6451;42.630;23.382;2024-03-17T10:31:16;94664.72;;;15.82;49.91
12775;BME280;6451;42.630;23.382;2024-03-17T10:33:43;94669.81;;;15.83;46.62
12775;BME280;6451;42.630;23.382;2024-03-17T10:36:17;94632.22;;;15.50;45.70
12775;BME280;6451;42.630;23.382;2024-03-17T10:38:51;94649.28;;;15.67;46.55
12775;BME280;6451;42.630;23.382;2024-03-17T10:41:23;94688.59;;;15.85;49.53
12775;BME280;6451;42.630;23.382;2024-03-17T10:43:54;94618.84;;;15.42;50.62
12775;BME280;6451;42.630;23.382;2024-03-17T10:46:26;94686.66;;;15.85;47.96
12775;BME280;6451;42.630;23.382;2024-03-17T10:48:56;94681.47;;;15.50;46.16
12775;BME280;6451;42.630;23.382;2024-03-17T10:51:27;94686.38;;;15.64;47.12
12775;BME280;6451;42.630;23.382;2024-03-17T10:53:57;94625.25;;;15.00;46.67
12775;BME280;6451;42.630;23.382;2024-03-17T10:56:26;94616.16;;;15.19;46.20
12775;BME280;6451;42.630;23.382;2024-03-17T10:58:55;94667.69;;;16.00;46.11
12775;BME280;6451;42.630;23.382;2024-03-17T11:01:30;94667.25;;;16.31;46.17
12775;BME280;6451;42.630;23.382;2024-03-17T11:03:59;94589.75;;;15.90;46.72
12775;BME280;6451;42.630;23.382;2024-03-17T11:06:30;94660.34;;;16.41;45.98
12775;BME280;6451;42.630;23.382;2024-03-17T11:08:58;94656.50;;;16.12;45.90
12775;BME280;6451;42.630;23.382;2024-03-17T11:11:40;94652.16;;;16.45;45.91
12775;BME280;6451;42.630;23.382;2024-03-17T11:14:19;94649.88;;;16.54;45.02
12775;BME280;6451;42.630;23.382;2024-03-17T11:16:49;94655.59;;;16.38;45.54
12775;BME280;6451;42.630;23.382;2024-03-17T11:19:19;94587.22;;;15.74;44.58
12775;BME280;6451;42.630;23.382;2024-03-17T11:21:46;94638.69;;;16.29;44.51
12775;BME280;6451;42.630;23.382;2024-03-17T11:24:21;94571.31;;;15.53;43.64
12775;BME280;6451;42.630;23.382;2024-03-17T11:26:54;94650.41;;;16.26;43.83
12775;BME280;6451;42.630;23.382;2024-03-17T11:29:28;94570.63;;;15.60;44.08
12775;BME280;6451;42.630;23.382;2024-03-17T11:32:24;94642.13;;;16.22;44.31
12775;BME280;6451;42.630;23.382;2024-03-17T11:35:14;94639.97;;;16.05;45.26
12775;BME280;6451;42.630;23.382;2024-03-17T11:37:41;94632.78;;;15.93;47.05
12775;BME280;6451;42.630;23.382;2024-03-17T11:40:23;94582.31;;;15.57;48.57
12775;BME280;6451;42.630;23.382;2024-03-17T11:43:00;94644.13;;;15.62;50.50
12775;BME280;6451;42.630;23.382;2024-03-17T11:45:28;94642.53;;;15.91;51.59
12775;BME280;6451;42.630;23.382;2024-03-17T11:47:57;94564.75;;;15.28;53.23
12775;BME280;6451;42.630;23.382;2024-03-17T11:50:24;94545.81;;;15.16;54.58
12775;BME280;6451;42.630;23.382;2024-03-17T11:52:57;94568.06;;;15.44;54.09
12775;BME280;6451;42.630;23.382;2024-03-17T11:55:24;94625.63;;;15.81;53.27
12775;BME280;6451;42.630;23.382;2024-03-17T11:57:55;94630.34;;;15.84;51.80
12775;BME280;6451;42.630;23.382;2024-03-17T12:00:23;94614.03;;;16.29;51.27
12775;BME280;6451;42.630;23.382;2024-03-17T12:02:52;94560.84;;;15.93;50.79
12775;BME280;6451;42.630;23.382;2024-03-17T12:05:21;94615.28;;;16.35;48.77
12775;BME280;6451;42.630;23.382;2024-03-17T12:07:48;94609.94;;;16.49;48.26
12775;BME280;6451;42.630;23.382;2024-03-17T12:10:19;94581.16;;;15.92;48.74
12775;BME280;6451;42.630;23.382;2024-03-17T12:12:47;94609.81;;;16.35;48.94
12775;BME280;6451;42.630;23.382;2024-03-17T12:15:17;94611.25;;;16.66;48.14
12775;BME280;6451;42.630;23.382;2024-03-17T12:17:43;94608.53;;;16.66;48.51
12775;BME280;6451;42.630;23.382;2024-03-17T12:20:17;94546.81;;;16.38;47.62
12775;BME280;6451;42.630;23.382;2024-03-17T12:22:47;94609.31;;;16.66;48.07
12775;BME280;6451;42.630;23.382;2024-03-17T12:25:17;94603.00;;;16.62;47.56
12775;BME280;6451;42.630;23.382;2024-03-17T12:27:45;94600.44;;;16.39;47.40
12775;BME280;6451;42.630;23.382;2024-03-17T12:30:14;94610.50;;;15.91;48.18
12775;BME280;6451;42.630;23.382;2024-03-17T12:32:41;94604.47;;;15.78;48.56
12775;BME280;6451;42.630;23.382;2024-03-17T12:35:14;94537.63;;;15.46;48.82
12775;BME280;6451;42.630;23.382;2024-03-17T12:37:43;94539.63;;;14.92;49.50
12775;BME280;6451;42.630;23.382;2024-03-17T12:40:27;94617.03;;;15.53;49.65
12775;BME280;6451;42.630;23.382;2024-03-17T12:42:54;94529.72;;;14.81;50.76
12775;BME280;6451;42.630;23.382;2024-03-17T12:45:21;94540.31;;;15.12;50.82
12775;BME280;6451;42.630;23.382;2024-03-17T12:47:48;94610.00;;;15.25;52.15
12775;BME280;6451;42.630;23.382;2024-03-17T12:50:16;94534.44;;;14.84;53.28
12775;BME280;6451;42.630;23.382;2024-03-17T12:52:52;94604.81;;;15.73;53.85
12775;BME280;6451;42.630;23.382;2024-03-17T12:55:20;94620.44;;;15.46;55.29
12775;BME280;6451;42.630;23.382;2024-03-17T12:58:08;94607.03;;;15.38;56.74
12775;BME280;6451;42.630;23.382;2024-03-17T13:01:02;94602.66;;;15.03;57.88
12775;BME280;6451;42.630;23.382;2024-03-17T13:03:31;94606.78;;;14.67;58.84
12775;BME280;6451;42.630;23.382;2024-03-17T13:06:00;94592.34;;;14.93;59.40
12775;BME280;6451;42.630;23.382;2024-03-17T13:08:28;94523.03;;;14.52;59.44